createdAt,value
2022-11-30T00:01:19.455Z,616.70
2022-11-30T00:03:47.154Z,632.65
2022-11-30T00:06:16.791Z,638.58
2022-11-30T00:08:43.771Z,629.47
2022-11-30T00:11:13.017Z,594.65
2022-11-30T00:13:39.939Z,771.42
2022-11-30T00:16:07.297Z,894.35
2022-11-30T00:18:34.741Z,920.13
2022-11-30T00:21:02.768Z,924.45
2022-11-30T00:23:34.531Z,926.03
2022-11-30T00:26:08.735Z,916.40
2022-11-30T00:28:37.533Z,903.45
2022-11-30T00:31:07.553Z,898.63
2022-11-30T00:33:36.661Z,882.10
2022-11-30T00:36:06.097Z,920.92
2022-11-30T00:38:33.726Z,929.83
2022-11-30T00:41:01.779Z,923.05
2022-11-30T00:43:29.309Z,928.00
2022-11-30T00:45:57.465Z,804.65
2022-11-30T00:48:24.412Z,827.15
2022-11-30T00:50:51.715Z,812.10
2022-11-30T00:53:19.547Z,757.75
2022-11-30T00:55:48.364Z,780.75
2022-11-30T00:58:15.786Z,741.63
2022-11-30T01:00:42.962Z,732.23
2022-11-30T01:03:10.399Z,669.75
2022-11-30T01:05:37.454Z,679.67
2022-11-30T01:08:07.305Z,653.50
2022-11-30T01:10:36.257Z,674.72
2022-11-30T01:13:03.763Z,620.50
2022-11-30T01:15:31.071Z,625.58
2022-11-30T01:18:00.801Z,691.78
2022-11-30T01:20:27.697Z,714.25
2022-11-30T01:22:55.632Z,710.75
2022-11-30T01:25:22.701Z,666.95
2022-11-30T01:27:50.482Z,690.90
2022-11-30T01:30:18.306Z,668.80
2022-11-30T01:32:45.273Z,689.58
2022-11-30T01:35:12.071Z,661.60
2022-11-30T01:37:38.846Z,655.03
2022-11-30T01:40:06.407Z,641.10
2022-11-30T01:42:33.510Z,624.87
2022-11-30T01:45:02.280Z,621.63
2022-11-30T01:47:36.532Z,644.60
2022-11-30T01:50:11.113Z,638.30
2022-11-30T01:52:43.433Z,621.57
2022-11-30T01:55:21.474Z,625.10
2022-11-30T01:57:53.787Z,600.25
2022-11-30T02:00:21.242Z,564.55
2022-11-30T02:03:16.359Z,555.95
2022-11-30T02:05:43.158Z,572.33
2022-11-30T02:08:12.209Z,559.63
2022-11-30T02:10:41.215Z,557.53
2022-11-30T02:13:32.331Z,557.13
2022-11-30T02:16:26.916Z,528.67
2022-11-30T02:19:31.321Z,574.20
2022-11-30T02:22:04.087Z,566.78
2022-11-30T02:24:46.441Z,569.67
2022-11-30T02:27:45.909Z,564.97
2022-11-30T02:30:19.287Z,581.65
2022-11-30T02:32:51.609Z,565.42
2022-11-30T02:35:22.028Z,588.45
2022-11-30T02:37:51.685Z,572.17
2022-11-30T02:40:20.190Z,601.73
2022-11-30T02:42:48.711Z,573.50
2022-11-30T02:45:16.042Z,584.35
2022-11-30T02:48:01.050Z,566.58
2022-11-30T02:50:37.039Z,562.25
2022-11-30T02:53:04.384Z,575.63
2022-11-30T02:55:32.144Z,591.25
2022-11-30T02:57:58.849Z,600.75
2022-11-30T03:00:25.698Z,564.20
2022-11-30T03:02:52.507Z,498.27
2022-11-30T03:05:19.211Z,537.78
2022-11-30T03:07:45.954Z,518.75
2022-11-30T03:10:12.795Z,547.60
2022-11-30T03:12:39.636Z,565.50
2022-11-30T03:15:07.030Z,562.65
2022-11-30T03:17:33.880Z,546.47
2022-11-30T03:20:00.696Z,569.92
2022-11-30T03:22:27.510Z,598.13
2022-11-30T03:24:54.348Z,592.55
2022-11-30T03:27:21.373Z,608.90
2022-11-30T03:29:48.139Z,596.42
2022-11-30T03:32:15.913Z,599.50
2022-11-30T03:34:42.710Z,595.33
2022-11-30T03:37:09.467Z,581.28
2022-11-30T03:39:36.336Z,596.30
2022-11-30T03:42:03.558Z,624.22
2022-11-30T03:44:30.423Z,618.15
2022-11-30T03:46:57.131Z,641.17
2022-11-30T03:49:23.870Z,641.42
2022-11-30T03:51:50.682Z,632.78
2022-11-30T03:54:17.485Z,632.75
2022-11-30T03:56:44.187Z,645.90
2022-11-30T03:59:10.961Z,616.53
2022-11-30T04:01:40.962Z,593.80
2022-11-30T04:04:07.856Z,648.05
2022-11-30T04:06:34.693Z,650.27
2022-11-30T04:09:01.584Z,664.28
2022-11-30T04:11:28.325Z,628.92
2022-11-30T04:13:55.109Z,606.28
2022-11-30T04:16:21.855Z,571.72
2022-11-30T04:18:48.774Z,606.70
2022-11-30T04:21:15.517Z,602.10
2022-11-30T04:23:42.338Z,609.33
2022-11-30T04:26:13.171Z,605.92
2022-11-30T04:28:40.509Z,622.88
2022-11-30T04:31:07.436Z,604.72
2022-11-30T04:33:34.299Z,619.95
2022-11-30T04:36:03.934Z,634.35
2022-11-30T04:38:31.934Z,605.97
2022-11-30T04:40:59.046Z,621.58
2022-11-30T04:43:27.435Z,586.60
2022-11-30T04:45:55.178Z,615.37
2022-11-30T04:48:21.963Z,646.33
2022-11-30T04:50:48.863Z,649.53
2022-11-30T04:53:15.699Z,640.33
2022-11-30T04:55:42.593Z,659.58
2022-11-30T04:58:09.583Z,646.78
2022-11-30T05:00:37.443Z,620.25
2022-11-30T05:03:04.179Z,638.15
2022-11-30T05:05:30.991Z,617.55
2022-11-30T05:07:59.229Z,597.92
2022-11-30T05:10:28.256Z,641.67
2022-11-30T05:12:55.320Z,678.38
2022-11-30T05:15:22.631Z,641.17
2022-11-30T05:17:49.359Z,648.72
2022-11-30T05:20:16.391Z,625.38
2022-11-30T05:22:43.324Z,662.92
2022-11-30T05:25:10.326Z,655.47
2022-11-30T05:27:37.847Z,637.80
2022-11-30T05:30:06.566Z,669.03
2022-11-30T05:32:33.394Z,638.22
2022-11-30T05:35:00.180Z,678.38
2022-11-30T05:37:27.371Z,646.58
2022-11-30T05:39:54.267Z,509.67
2022-11-30T05:42:21.466Z,492.05
2022-11-30T05:44:48.555Z,495.98
2022-11-30T05:47:16.303Z,498.07
2022-11-30T05:49:43.201Z,513.78
2022-11-30T05:52:10.342Z,502.75
2022-11-30T05:54:37.141Z,507.90
2022-11-30T05:57:05.288Z,529.00
2022-11-30T05:59:32.179Z,519.40
2022-11-30T06:01:59.177Z,441.20
2022-11-30T06:04:26.298Z,429.85
2022-11-30T06:06:55.496Z,450.83
2022-11-30T06:09:22.989Z,435.52
2022-11-30T06:11:49.848Z,440.80
2022-11-30T06:14:17.052Z,432.52
2022-11-30T06:16:43.889Z,453.98
2022-11-30T06:19:10.828Z,409.10
2022-11-30T06:21:37.634Z,430.88
2022-11-30T06:24:04.587Z,440.83
2022-11-30T06:26:31.439Z,451.27
2022-11-30T06:28:58.194Z,462.92
2022-11-30T06:31:25.020Z,463.92
2022-11-30T06:33:51.828Z,470.38
2022-11-30T06:36:22.885Z,419.05
2022-11-30T06:38:49.996Z,424.58
2022-11-30T06:41:17.389Z,438.42
2022-11-30T06:43:44.249Z,433.63
2022-11-30T06:46:11.381Z,461.52
2022-11-30T06:48:38.279Z,487.05
2022-11-30T06:51:06.934Z,504.85
2022-11-30T06:53:33.759Z,551.87
2022-11-30T06:56:10.374Z,462.20
2022-11-30T06:58:39.518Z,483.88
2022-11-30T07:01:08.167Z,489.98
2022-11-30T07:03:35.339Z,521.28
2022-11-30T07:06:07.131Z,501.90
2022-11-30T07:08:34.181Z,461.88
2022-11-30T07:11:02.259Z,495.05
2022-11-30T07:13:29.991Z,482.13
2022-11-30T07:15:57.080Z,479.58
2022-11-30T07:18:30.149Z,495.90
2022-11-30T07:21:03.089Z,518.00
2022-11-30T07:23:54.082Z,502.35
2022-11-30T07:26:23.636Z,518.15
2022-11-30T07:28:54.841Z,524.08
2022-11-30T07:31:30.189Z,543.90
2022-11-30T07:33:58.813Z,517.90
2022-11-30T07:36:27.262Z,491.63
2022-11-30T07:38:54.128Z,487.08
2022-11-30T07:41:21.123Z,467.65
2022-11-30T07:43:48.912Z,470.73
2022-11-30T07:46:16.965Z,479.70
2022-11-30T07:48:45.196Z,474.50
2022-11-30T07:51:16.378Z,453.00
2022-11-30T07:53:43.610Z,454.30
2022-11-30T07:56:19.242Z,448.48
2022-11-30T07:58:47.122Z,465.48
2022-11-30T08:01:17.634Z,473.88
2022-11-30T08:03:45.104Z,509.92
2022-11-30T08:06:14.519Z,501.77
2022-11-30T08:08:44.159Z,505.00
2022-11-30T08:11:15.290Z,479.75
2022-11-30T08:13:42.495Z,516.97
2022-11-30T08:16:17.079Z,510.33
2022-11-30T08:18:44.521Z,537.70
2022-11-30T08:21:13.456Z,522.00
2022-11-30T08:23:42.844Z,499.13
2022-11-30T08:26:15.264Z,496.30
2022-11-30T08:28:43.594Z,540.63
2022-11-30T08:31:16.565Z,525.58
2022-11-30T08:33:43.930Z,518.85
2022-11-30T08:36:13.963Z,504.90
2022-11-30T08:38:41.985Z,495.67
2022-11-30T08:41:10.982Z,527.67
2022-11-30T08:43:38.130Z,524.70
2022-11-30T08:46:27.616Z,552.67
2022-11-30T08:49:12.497Z,585.80
2022-11-30T08:52:08.748Z,652.28
2022-11-30T08:54:27.406Z,647.55
2022-11-30T08:56:54.265Z,646.78
2022-11-30T08:59:21.143Z,688.67
2022-11-30T09:01:47.861Z,664.22
2022-11-30T09:04:14.811Z,695.30
2022-11-30T09:06:41.858Z,492.50
2022-11-30T09:09:10.511Z,687.47
2022-11-30T09:11:37.397Z,716.22
2022-11-30T09:14:05.212Z,716.90
2022-11-30T09:16:32.031Z,712.00
2022-11-30T09:19:00.081Z,740.22
2022-11-30T09:21:27.085Z,711.65
2022-11-30T09:23:56.213Z,763.60
2022-11-30T09:26:25.211Z,801.47
2022-11-30T09:28:53.600Z,765.13
2022-11-30T09:31:23.338Z,781.00
2022-11-30T09:33:51.144Z,777.28
2022-11-30T09:36:20.319Z,763.00
2022-11-30T09:38:48.173Z,708.78
2022-11-30T09:41:39.993Z,693.75
2022-11-30T09:44:32.963Z,693.17
2022-11-30T09:47:21.288Z,682.57
2022-11-30T09:49:48.673Z,620.50
2022-11-30T09:52:32.658Z,619.17
2022-11-30T09:55:03.307Z,640.58
2022-11-30T09:57:31.760Z,606.45
2022-11-30T10:00:04.823Z,668.58
2022-11-30T10:02:39.811Z,666.20
2022-11-30T10:05:20.970Z,659.67
2022-11-30T10:08:18.225Z,690.63
2022-11-30T10:11:09.786Z,707.35
2022-11-30T10:14:14.743Z,780.75
2022-11-30T10:16:48.241Z,782.60
2022-11-30T10:19:28.208Z,804.40
2022-11-30T10:22:09.184Z,818.88
2022-11-30T10:24:52.842Z,829.60
2022-11-30T10:27:29.003Z,806.13
2022-11-30T10:29:58.022Z,843.90
2022-11-30T10:32:35.368Z,833.42
2022-11-30T10:35:15.327Z,865.33
2022-11-30T10:37:42.912Z,866.60
2022-11-30T10:40:22.117Z,892.55
2022-11-30T10:42:56.830Z,869.90
2022-11-30T10:45:27.005Z,842.03
2022-11-30T10:48:03.727Z,868.80
2022-11-30T10:50:31.506Z,869.72
2022-11-30T10:53:00.787Z,868.10
2022-11-30T10:55:31.521Z,864.17
2022-11-30T10:58:05.098Z,824.03
2022-11-30T11:00:32.435Z,850.57
2022-11-30T11:02:59.479Z,785.47
2022-11-30T11:05:28.846Z,807.63
2022-11-30T11:08:17.027Z,789.53
2022-11-30T11:10:47.644Z,752.65
2022-11-30T11:13:18.538Z,763.35
2022-11-30T11:16:00.549Z,727.03
2022-11-30T11:18:28.935Z,754.63
2022-11-30T11:21:18.466Z,809.65
2022-11-30T11:23:46.995Z,743.28
2022-11-30T11:26:28.004Z,760.25
2022-11-30T11:29:00.903Z,772.20
2022-11-30T11:31:39.163Z,791.63
2022-11-30T11:34:22.430Z,783.28
2022-11-30T11:37:05.258Z,877.28
2022-11-30T11:39:32.034Z,886.13
2022-11-30T11:41:59.667Z,903.63
2022-11-30T11:44:28.018Z,890.65
2022-11-30T11:46:58.974Z,879.85
2022-11-30T11:49:31.669Z,853.50
2022-11-30T11:52:15.197Z,854.88
2022-11-30T11:54:53.245Z,849.65
2022-11-30T11:57:23.402Z,884.10
2022-11-30T12:00:16.698Z,880.35
2022-11-30T12:03:13.866Z,908.60
2022-11-30T12:05:46.141Z,894.67
2022-11-30T12:08:28.827Z,868.90
2022-11-30T12:11:01.739Z,907.00
2022-11-30T12:13:38.974Z,827.20
2022-11-30T12:16:11.975Z,821.95
2022-11-30T12:19:09.944Z,823.85
2022-11-30T12:21:55.466Z,815.92
2022-11-30T12:24:40.717Z,806.38
2022-11-30T12:27:37.392Z,866.63
2022-11-30T12:30:25.012Z,876.60
2022-11-30T12:33:06.713Z,865.53
2022-11-30T12:36:10.519Z,911.15
2022-11-30T12:38:43.314Z,862.90
2022-11-30T12:41:18.843Z,815.47
2022-11-30T12:44:09.342Z,907.90
2022-11-30T12:46:39.192Z,841.45
2022-11-30T12:49:27.868Z,707.83
2022-11-30T12:52:19.451Z,960.58
2022-11-30T12:54:56.733Z,887.80
2022-11-30T12:57:35.040Z,770.80
2022-11-30T13:00:19.923Z,727.65
2022-11-30T13:03:27.581Z,762.65
2022-11-30T13:06:01.174Z,732.03
2022-11-30T13:08:34.852Z,723.25
2022-11-30T13:11:08.282Z,739.08
2022-11-30T13:13:37.001Z,756.35
2022-11-30T13:16:08.146Z,763.15
2022-11-30T13:18:37.317Z,801.53
2022-11-30T13:21:28.358Z,806.45
2022-11-30T13:24:03.721Z,888.97
2022-11-30T13:26:53.675Z,893.20
2022-11-30T13:29:44.798Z,870.17
2022-11-30T13:32:41.102Z,748.22
2022-11-30T13:35:29.505Z,734.17
2022-11-30T13:38:28.647Z,729.80
2022-11-30T13:41:01.137Z,630.60
2022-11-30T13:43:39.444Z,662.17
2022-11-30T13:46:26.617Z,681.25
2022-11-30T13:49:20.397Z,579.40
2022-11-30T13:52:01.387Z,561.35
2022-11-30T13:54:41.880Z,559.77
2022-11-30T13:57:27.394Z,564.30
2022-11-30T13:59:56.639Z,557.10
2022-11-30T14:02:33.888Z,566.03
2022-11-30T14:05:16.049Z,593.65
2022-11-30T14:08:06.927Z,605.13
2022-11-30T14:10:39.469Z,707.67
2022-11-30T14:13:09.364Z,739.38
2022-11-30T14:15:39.192Z,754.67
2022-11-30T14:18:08.727Z,733.97
2022-11-30T14:20:52.210Z,755.95
2022-11-30T14:23:27.406Z,766.03
2022-11-30T14:25:57.209Z,654.00
2022-11-30T14:28:46.461Z,679.42
2022-11-30T14:31:21.059Z,999.63
2022-11-30T14:33:55.820Z,998.10
2022-11-30T14:36:26.988Z,939.25
2022-11-30T14:38:53.909Z,992.90
2022-11-30T14:41:25.482Z,999.90
2022-11-30T14:44:13.085Z,999.90
2022-11-30T14:46:40.366Z,999.90
2022-11-30T14:49:20.021Z,999.90
2022-11-30T14:51:54.102Z,999.90
2022-11-30T14:54:35.151Z,999.90
2022-11-30T14:57:21.591Z,999.90
2022-11-30T14:59:53.670Z,999.90
2022-11-30T15:02:31.511Z,999.90
2022-11-30T15:04:59.045Z,999.90
2022-11-30T15:07:27.493Z,999.90
2022-11-30T15:10:05.242Z,999.90
2022-11-30T15:12:33.563Z,999.90
2022-11-30T15:15:15.245Z,999.90
2022-11-30T15:17:52.579Z,999.90
2022-11-30T15:20:23.039Z,999.90
2022-11-30T15:22:49.971Z,999.90
2022-11-30T15:25:16.850Z,999.90
2022-11-30T15:27:44.115Z,999.90
2022-11-30T15:30:15.282Z,999.90
2022-11-30T15:32:49.755Z,999.90
2022-11-30T15:35:20.155Z,999.90
2022-11-30T15:37:47.939Z,999.90
2022-11-30T15:40:21.962Z,999.90
2022-11-30T15:42:49.790Z,999.90
2022-11-30T15:45:22.551Z,999.90
2022-11-30T15:47:49.763Z,999.90
2022-11-30T15:50:30.931Z,999.90
2022-11-30T15:53:25.712Z,999.90
2022-11-30T15:56:01.390Z,999.90
2022-11-30T15:58:37.011Z,999.90
2022-11-30T16:01:09.046Z,999.90
2022-11-30T16:03:54.650Z,999.90
2022-11-30T16:06:48.218Z,999.90
2022-11-30T16:09:32.246Z,999.90
2022-11-30T16:12:01.144Z,999.90
2022-11-30T16:14:27.967Z,999.90
2022-11-30T16:16:55.634Z,999.90
2022-11-30T16:19:22.814Z,999.90
2022-11-30T16:21:50.296Z,999.90
2022-11-30T16:24:17.361Z,999.90
2022-11-30T16:26:52.224Z,999.90
2022-11-30T16:29:19.854Z,999.90
2022-11-30T16:31:46.946Z,999.90
2022-11-30T16:34:13.780Z,999.90
2022-11-30T16:36:40.550Z,999.90
2022-11-30T16:39:11.957Z,999.90
2022-11-30T16:41:39.836Z,999.90
2022-11-30T16:44:13.038Z,999.90
2022-11-30T16:46:39.952Z,999.90
2022-11-30T16:49:06.818Z,999.90
2022-11-30T16:51:34.673Z,999.90
2022-11-30T16:54:01.670Z,999.90
2022-11-30T16:56:28.395Z,999.90
2022-11-30T16:58:55.478Z,999.90
2022-11-30T17:01:38.100Z,999.90
2022-11-30T17:04:20.605Z,999.90
2022-11-30T17:06:50.572Z,999.90
2022-11-30T17:09:18.915Z,999.90
2022-11-30T17:11:47.204Z,999.90
2022-11-30T17:14:14.572Z,999.90
2022-11-30T17:16:42.161Z,999.90
2022-11-30T17:19:10.158Z,999.90
2022-11-30T17:21:38.572Z,999.90
2022-11-30T17:24:06.540Z,999.90
2022-11-30T17:26:33.550Z,999.90
2022-11-30T17:29:00.843Z,999.90
2022-11-30T17:31:27.718Z,999.90
2022-11-30T17:33:54.891Z,999.90
2022-11-30T17:36:23.341Z,999.90
2022-11-30T17:38:50.601Z,999.90
2022-11-30T17:41:19.912Z,999.90
2022-11-30T17:43:47.637Z,999.90
2022-11-30T17:46:16.616Z,999.90
2022-11-30T17:48:43.856Z,999.90
2022-11-30T17:51:12.306Z,999.90
2022-11-30T17:53:40.195Z,999.90
2022-11-30T17:56:12.708Z,999.90
2022-11-30T17:58:44.095Z,999.90
2022-11-30T18:01:23.469Z,999.90
2022-11-30T18:03:51.796Z,999.90
2022-11-30T18:06:19.388Z,999.90
2022-11-30T18:08:46.551Z,999.90
2022-11-30T18:11:16.720Z,999.90
2022-11-30T18:13:43.631Z,999.90
2022-11-30T18:16:17.810Z,999.90
2022-11-30T18:18:48.173Z,999.90
2022-11-30T18:21:18.141Z,999.90
2022-11-30T18:23:46.432Z,999.90
2022-11-30T18:26:16.878Z,999.90
2022-11-30T18:28:46.559Z,999.90
2022-11-30T18:31:13.563Z,999.90
2022-11-30T18:33:40.428Z,999.90
2022-11-30T18:36:07.899Z,999.90
2022-11-30T18:38:38.095Z,999.90
2022-11-30T18:41:06.123Z,999.90
2022-11-30T18:43:34.822Z,999.90
2022-11-30T18:46:03.625Z,999.90
2022-11-30T18:48:30.580Z,999.90
2022-11-30T18:50:57.459Z,999.90
2022-11-30T18:53:24.477Z,999.90
2022-11-30T18:55:51.486Z,999.90
2022-11-30T18:58:18.337Z,999.90
2022-11-30T19:00:45.212Z,999.90
2022-11-30T19:03:12.062Z,999.90
2022-11-30T19:05:40.380Z,999.90
2022-11-30T19:08:11.260Z,999.90
2022-11-30T19:10:39.931Z,999.90
2022-11-30T19:13:07.310Z,999.90
2022-11-30T19:15:41.622Z,999.90
2022-11-30T19:18:11.254Z,999.90
2022-11-30T19:20:41.661Z,999.90
2022-11-30T19:23:08.737Z,999.90
2022-11-30T19:25:35.644Z,999.90
2022-11-30T19:28:02.523Z,999.90
2022-11-30T19:30:29.449Z,999.90
2022-11-30T19:32:56.282Z,999.90
2022-11-30T19:35:24.962Z,999.90
2022-11-30T19:37:52.316Z,999.90
2022-11-30T19:40:19.216Z,999.90
2022-11-30T19:42:46.030Z,999.90
2022-11-30T19:45:12.770Z,999.90
2022-11-30T19:47:40.596Z,999.90
2022-11-30T19:50:07.708Z,999.90
2022-11-30T19:52:34.534Z,999.90
2022-11-30T19:55:01.305Z,999.90
2022-11-30T19:57:28.108Z,999.90
2022-11-30T19:59:54.870Z,999.90
2022-11-30T20:02:21.792Z,999.90
2022-11-30T20:04:48.932Z,992.85
2022-11-30T20:07:15.874Z,992.72
2022-11-30T20:09:42.705Z,990.38
2022-11-30T20:12:09.499Z,991.85
2022-11-30T20:14:36.965Z,999.50
2022-11-30T20:17:04.771Z,998.03
2022-11-30T20:19:31.776Z,993.40
2022-11-30T20:21:59.250Z,996.67
2022-11-30T20:24:26.527Z,995.45
2022-11-30T20:26:53.340Z,999.90
2022-11-30T20:29:20.118Z,996.53
2022-11-30T20:31:48.937Z,999.90
2022-11-30T20:34:16.374Z,998.38
2022-11-30T20:36:45.182Z,997.25
2022-11-30T20:39:12.104Z,995.85
2022-11-30T20:41:39.394Z,997.63
2022-11-30T20:44:06.382Z,999.63
2022-11-30T20:46:35.609Z,999.90
2022-11-30T20:49:17.888Z,999.90
2022-11-30T20:51:46.749Z,999.90
2022-11-30T20:54:14.819Z,992.95
2022-11-30T20:56:41.862Z,999.43
2022-11-30T20:59:16.486Z,995.63
2022-11-30T21:01:46.821Z,994.95
2022-11-30T21:04:13.883Z,999.90
2022-11-30T21:06:45.344Z,999.90
2022-11-30T21:09:13.763Z,999.25
2022-11-30T21:11:40.625Z,999.90
2022-11-30T21:14:07.534Z,999.90
2022-11-30T21:16:34.982Z,999.90
2022-11-30T21:19:02.239Z,999.90
2022-11-30T21:21:35.445Z,999.90
2022-11-30T21:24:04.625Z,990.58
2022-11-30T21:26:43.527Z,998.97
2022-11-30T21:29:15.988Z,995.72
2022-11-30T21:31:43.973Z,996.80
2022-11-30T21:34:11.604Z,991.50
2022-11-30T21:36:39.698Z,995.03
2022-11-30T21:39:07.553Z,997.83
2022-11-30T21:41:37.232Z,998.20
2022-11-30T21:44:07.318Z,991.03
2022-11-30T21:46:34.656Z,989.30
2022-11-30T21:49:03.432Z,987.03
2022-11-30T21:51:34.134Z,988.35
2022-11-30T21:54:04.557Z,997.03
2022-11-30T21:56:33.816Z,991.55
2022-11-30T21:59:01.508Z,993.10
2022-11-30T22:01:33.949Z,991.85
2022-11-30T22:04:01.771Z,990.08
2022-11-30T22:06:30.221Z,987.25
2022-11-30T22:09:03.218Z,975.75
2022-11-30T22:11:31.278Z,978.60
2022-11-30T22:13:58.133Z,973.03
2022-11-30T22:16:28.728Z,976.90
2022-11-30T22:18:59.311Z,991.87
2022-11-30T22:21:29.329Z,988.55
2022-11-30T22:23:58.265Z,988.83
2022-11-30T22:26:30.206Z,989.60
2022-11-30T22:28:59.661Z,988.38
2022-11-30T22:31:29.483Z,991.45
2022-11-30T22:33:57.145Z,999.90
2022-11-30T22:36:26.999Z,999.83
2022-11-30T22:38:59.700Z,996.45
2022-11-30T22:41:28.531Z,999.72
2022-11-30T22:43:57.310Z,997.72
2022-11-30T22:46:27.505Z,997.05
2022-11-30T22:48:59.043Z,995.28
2022-11-30T22:51:28.138Z,999.90
2022-11-30T22:53:55.845Z,992.05
2022-11-30T22:56:26.645Z,997.15
2022-11-30T22:58:55.298Z,995.05
2022-11-30T23:01:25.902Z,989.45
2022-11-30T23:03:56.257Z,993.20
2022-11-30T23:06:24.313Z,994.30
2022-11-30T23:08:52.155Z,993.45
2022-11-30T23:11:24.419Z,991.65
2022-11-30T23:13:52.082Z,993.65
2022-11-30T23:16:19.574Z,985.30
2022-11-30T23:18:49.513Z,991.95
2022-11-30T23:21:33.653Z,995.45
2022-11-30T23:24:07.109Z,991.85
2022-11-30T23:26:37.315Z,996.72
2022-11-30T23:29:07.227Z,518.13
2022-11-30T23:31:36.385Z,673.47
2022-11-30T23:34:05.926Z,788.53
2022-11-30T23:36:33.710Z,994.50
2022-11-30T23:39:09.193Z,993.10
2022-11-30T23:41:36.418Z,996.17
2022-11-30T23:44:03.301Z,995.07
2022-11-30T23:46:30.457Z,999.90
2022-11-30T23:48:57.339Z,999.90
2022-11-30T23:51:26.019Z,998.00
2022-11-30T23:53:54.099Z,999.35
2022-11-30T23:56:23.159Z,991.67
2022-11-30T23:58:50.249Z,985.65
